Capulin, New Mexico
Current Conditions -  °F | °C
As of 3:53 PM on Wednesday 17 Dec 2014 (Local Time) from KRTN Reporting Station
Overcast Overcast  
Wind Chill: 39°   Ceiling: 6500
Heat Index: 39°   Visibility: 10mi
Dew Point: 25°   Wind: 3mph
Humidity: 57%   Direction: 220°SW
Pressure: 29.88"   Gusts: NA
Location:  36.74°N, 103.99°W
Report Text: KRTN 172253Z AUTO 22003KT 10SM BKN065 OVC120 04/M04 A2988 RMK AO2 SLP127 T00391039
Loading
Personal Weather Stations






























Interactive Weather Map New forecast layout! Learn more

10-Day Weather Forecast

Advertisements
Track Severe Weather on mobile